createdAt,value
2023-01-30T00:10:58.733Z,3.9
2023-01-30T00:23:01.091Z,3.2
2023-01-30T00:34:58.720Z,3.2
2023-01-30T00:46:58.636Z,3.2
2023-01-30T00:58:58.621Z,3.6
2023-01-30T01:10:58.727Z,3.6
2023-01-30T01:22:58.727Z,3.7
2023-01-30T01:34:58.620Z,3.7
2023-01-30T01:46:58.712Z,3.7
2023-01-30T01:58:58.684Z,2.8
2023-01-30T02:10:58.620Z,2.8
2023-01-30T02:22:58.746Z,3.0
2023-01-30T02:34:58.705Z,3.0
2023-01-30T02:46:58.748Z,3.0
2023-01-30T02:58:58.716Z,2.8
2023-01-30T03:10:58.745Z,2.8
2023-01-30T03:22:58.707Z,2.2
2023-01-30T03:34:58.687Z,2.2
2023-01-30T03:46:58.623Z,2.2
2023-01-30T03:58:58.768Z,2.2
2023-01-30T04:10:58.621Z,2.2
2023-01-30T04:22:58.681Z,2.2
2023-01-30T04:34:58.633Z,2.2
2023-01-30T04:46:58.708Z,2.2
2023-01-30T04:58:58.717Z,1.9
2023-01-30T05:10:58.628Z,1.9
2023-01-30T05:22:58.622Z,1.9
2023-01-30T05:34:58.635Z,1.9
2023-01-30T05:46:58.761Z,1.9
2023-01-30T05:58:58.695Z,1.9
2023-01-30T06:10:58.656Z,1.9
2023-01-30T06:22:58.715Z,1.9
2023-01-30T06:34:58.615Z,1.9
2023-01-30T06:46:58.691Z,1.9
2023-01-30T06:58:58.724Z,1.6
2023-01-30T07:10:58.717Z,1.6
2023-01-30T07:22:58.745Z,1.7
2023-01-30T07:34:58.687Z,1.7
2023-01-30T07:46:58.766Z,1.7
2023-01-30T07:58:58.746Z,1.6
2023-01-30T08:10:58.620Z,1.6
2023-01-30T08:22:58.622Z,1.4
2023-01-30T08:34:58.618Z,1.4
2023-01-30T08:46:58.669Z,1.4
2023-01-30T08:58:58.648Z,1.4
2023-01-30T09:10:58.625Z,1.4
2023-01-30T09:22:58.736Z,1.2
2023-01-30T09:34:58.623Z,1.2
2023-01-30T09:46:58.712Z,1.2
2023-01-30T09:58:58.737Z,1.0
2023-01-30T10:11:09.612Z,1.0
2023-01-30T10:22:58.772Z,0.9
2023-01-30T10:34:58.636Z,0.9
2023-01-30T10:46:58.621Z,0.9
2023-01-30T10:58:58.731Z,0.9
2023-01-30T11:10:58.628Z,0.9
2023-01-30T11:22:58.705Z,1.0
2023-01-30T11:34:58.615Z,1.0
2023-01-30T11:46:58.745Z,1.0
2023-01-30T11:58:58.648Z,0.8
2023-01-30T12:10:58.734Z,0.8
2023-01-30T12:22:58.695Z,0.8
2023-01-30T12:34:58.641Z,0.8
2023-01-30T12:46:58.654Z,0.8
2023-01-30T12:58:58.683Z,1.1
2023-01-30T13:10:58.635Z,1.1
2023-01-30T13:22:58.700Z,0.8
2023-01-30T13:34:58.716Z,0.8
2023-01-30T13:46:58.991Z,0.8
2023-01-30T13:58:58.616Z,0.8
2023-01-30T14:10:58.745Z,0.8
2023-01-30T14:22:58.759Z,0.9
2023-01-30T14:34:58.625Z,0.9
2023-01-30T14:46:58.728Z,0.9
2023-01-30T14:58:58.622Z,0.9
2023-01-30T15:10:58.734Z,0.9
2023-01-30T15:22:58.678Z,0.7
2023-01-30T15:34:58.729Z,0.7
2023-01-30T15:46:58.721Z,0.7
2023-01-30T15:58:58.748Z,0.7
2023-01-30T16:10:58.706Z,0.7
2023-01-30T16:22:58.808Z,0.8
2023-01-30T16:34:58.727Z,0.8
2023-01-30T16:46:58.752Z,0.8
2023-01-30T16:58:58.623Z,1.0
2023-01-30T17:10:58.659Z,1.0
2023-01-30T17:22:58.674Z,0.9
2023-01-30T17:34:58.715Z,0.9
2023-01-30T17:46:58.726Z,0.9
2023-01-30T17:58:58.619Z,1.2
2023-01-30T18:10:58.641Z,1.2
2023-01-30T18:22:58.710Z,1.1
2023-01-30T18:34:58.706Z,1.1
2023-01-30T18:46:58.708Z,1.1
2023-01-30T18:58:58.703Z,0.9
2023-01-30T19:10:58.719Z,0.9
2023-01-30T19:22:58.738Z,1.1
2023-01-30T19:34:58.621Z,1.1
2023-01-30T19:46:58.636Z,1.1
2023-01-30T19:58:58.832Z,1.4
2023-01-30T20:10:58.616Z,1.4
2023-01-30T20:22:58.625Z,1.0
2023-01-30T20:34:58.721Z,1.0
2023-01-30T20:46:58.714Z,1.0
2023-01-30T20:58:58.719Z,0.9
2023-01-30T21:10:58.728Z,0.9
2023-01-30T21:22:58.688Z,1.2
2023-01-30T21:34:58.733Z,1.2
2023-01-30T21:46:58.743Z,1.2
2023-01-30T21:58:58.712Z,1.0
2023-01-30T22:10:58.732Z,1.0
2023-01-30T22:22:58.749Z,1.0
2023-01-30T22:34:58.701Z,1.0
2023-01-30T22:46:58.688Z,1.0
2023-01-30T22:58:58.735Z,0.9
2023-01-30T23:10:58.634Z,0.9
2023-01-30T23:22:58.735Z,0.7
2023-01-30T23:34:58.709Z,0.7
2023-01-30T23:46:58.735Z,0.7
2023-01-30T23:58:58.728Z,1.2
